Time;durP1;ratioP1;P1;durP2;ratioP2;P2;SDS_P1;SDS_P2;PMS_P1;PMS_P2;Temp;Humidity;BMP_temperature;BMP_pressure;BME280_temperature;BME280_humidity;BME280_pressure;Samples;Min_cycle;Max_cycle;Signal;HPM_P1;HPM_P2
2022/03/13 00:00:23;;;;;;;9.73;7.13;;;;;;;-0.68;65.52;100718.97;5105217;28;20031;-62
2022/03/13 00:02:50;;;;;;;10.88;7.20;;;;;;;-0.72;64.91;100717.09;5103960;28;20251;-61
2022/03/13 00:05:16;;;;;;;10.98;7.38;;;;;;;-0.71;65.78;100713.75;5105138;28;20024;-61
2022/03/13 00:07:43;;;;;;;10.88;7.72;;;;;;;-0.61;65.96;100717.53;5105145;28;20023;-61
2022/03/13 00:10:09;;;;;;;9.18;7.10;;;;;;;-0.56;65.67;100716.91;5104834;28;20063;-61
2022/03/13 00:12:35;;;;;;;11.50;7.07;;;;;;;-0.67;64.98;100713.06;5104799;28;20041;-62
2022/03/13 00:15:09;;;;;;;10.38;5.90;;;;;;;-0.72;64.25;100712.00;5103336;28;20032;-62
2022/03/13 00:17:35;;;;;;;8.80;6.50;;;;;;;-0.63;64.23;100714.91;5104812;28;20115;-62
2022/03/13 00:20:05;;;;;;;10.38;6.45;;;;;;;-0.93;63.81;100650.97;5103601;28;20028;-61
2022/03/13 00:22:33;;;;;;;10.48;6.78;;;;;;;-0.63;63.46;100691.16;5104801;28;20024;-62
2022/03/13 00:25:00;;;;;;;11.10;7.35;;;;;;;-0.45;63.58;100716.47;5104692;28;20028;-62
2022/03/13 00:27:25;;;;;;;11.60;7.30;;;;;;;-0.45;64.09;100712.25;5104574;28;20031;-61
2022/03/13 00:29:52;;;;;;;10.35;6.55;;;;;;;-0.41;64.03;100719.19;5104686;28;20205;-61
2022/03/13 00:32:17;;;;;;;11.55;6.15;;;;;;;-0.48;63.35;100711.28;5120473;28;20051;-61
2022/03/13 00:34:43;;;;;;;9.80;6.30;;;;;;;-0.56;61.98;100711.81;5104455;28;20087;-61
2022/03/13 00:37:10;;;;;;;9.25;5.32;;;;;;;-0.53;62.60;100713.59;5104506;28;20248;-61
2022/03/13 00:39:38;;;;;;;8.30;5.57;;;;;;;-0.49;62.42;100714.63;5103999;28;20023;-62
2022/03/13 00:42:04;;;;;;;11.48;5.88;;;;;;;-0.50;62.52;100711.19;5104055;28;20054;-63
2022/03/13 00:44:30;;;;;;;8.55;6.38;;;;;;;-0.47;62.67;100711.34;5104434;28;20028;-62
2022/03/13 00:46:55;;;;;;;7.97;5.28;;;;;;;-0.45;62.45;100713.94;5103268;28;20036;-61
2022/03/13 00:49:21;;;;;;;8.10;5.95;;;;;;;-0.40;63.17;100718.41;5104332;28;20241;-61
2022/03/13 00:51:46;;;;;;;8.93;6.60;;;;;;;-0.37;62.17;100717.63;5104075;28;20213;-61
2022/03/13 00:54:12;;;;;;;9.48;6.38;;;;;;;-0.39;62.48;100716.72;5086433;28;20024;-61
2022/03/13 00:56:38;;;;;;;10.02;6.60;;;;;;;-0.33;62.97;100714.41;5083726;28;20028;-61
2022/03/13 00:59:03;;;;;;;9.85;6.65;;;;;;;-0.36;62.75;100709.19;5083846;28;20016;-61
2022/03/13 01:01:29;;;;;;;10.77;7.32;;;;;;;-0.31;62.74;100720.44;5083745;28;20032;-63
2022/03/13 01:03:54;;;;;;;8.48;6.40;;;;;;;-0.31;63.20;100712.81;5083796;28;20321;-62
2022/03/13 01:06:21;;;;;;;8.75;5.80;;;;;;;-0.32;63.48;100716.16;5083759;28;20036;-61
2022/03/13 01:08:48;;;;;;;8.88;6.05;;;;;;;-0.38;62.74;100718.47;5095682;28;20032;-61
2022/03/13 01:11:18;;;;;;;8.77;6.13;;;;;;;-0.89;62.87;100663.00;5103644;28;20036;-61
2022/03/13 01:13:45;;;;;;;9.50;6.38;;;;;;;-0.47;62.95;100718.97;5083499;28;20055;-62
2022/03/13 01:16:22;;;;;;;8.40;6.35;;;;;;;-0.36;63.56;100725.34;5083376;28;20359;-62
2022/03/13 01:18:51;;;;;;;9.77;6.13;;;;;;;-0.32;63.48;100725.47;5083554;28;20034;-62
2022/03/13 01:21:17;;;;;;;7.68;5.93;;;;;;;-0.36;63.90;100719.38;5083284;28;20134;-62
2022/03/13 01:24:17;;;;;;;6.72;5.38;;;;;;;-0.38;65.01;100715.91;5086698;28;20042;-62
2022/03/13 01:26:43;;;;;;;8.73;6.40;;;;;;;-0.26;64.77;100731.66;5102132;28;20023;-62
2022/03/13 01:29:11;;;;;;;9.40;5.95;;;;;;;-0.24;63.82;100732.59;5103543;28;20036;-62
2022/03/13 01:31:39;;;;;;;7.88;5.80;;;;;;;-0.23;64.19;100729.25;5119455;28;20024;-63
2022/03/13 01:34:09;;;;;;;6.55;5.70;;;;;;;-0.30;65.19;100729.81;5103477;28;20023;-61
2022/03/13 01:36:35;;;;;;;5.47;4.47;;;;;;;-0.39;64.59;100727.75;5103271;28;20324;-61
2022/03/13 01:39:01;;;;;;;6.07;4.72;;;;;;;-0.38;65.06;100732.03;5102119;28;20038;-61
2022/03/13 01:41:29;;;;;;;6.38;4.72;;;;;;;-0.46;64.75;100728.31;5102294;28;20034;-60
2022/03/13 01:43:57;;;;;;;5.68;4.55;;;;;;;-0.34;64.70;100738.13;5090774;28;20306;-61
2022/03/13 01:46:22;;;;;;;5.68;4.90;;;;;;;-0.28;65.18;100738.38;5081809;28;20363;-61
2022/03/13 01:49:02;;;;;;;5.03;4.25;;;;;;;-0.35;64.55;100733.84;5098776;28;20028;-61
2022/03/13 01:51:30;;;;;;;5.95;4.75;;;;;;;-0.30;64.83;100739.09;5087328;28;20055;-61
2022/03/13 01:53:58;;;;;;;5.13;4.30;;;;;;;-0.39;65.25;100735.38;5107475;28;20305;-61
2022/03/13 01:56:24;;;;;;;6.35;4.72;;;;;;;-0.35;65.54;100741.47;5107180;28;20020;-61
2022/03/13 01:58:53;;;;;;;5.53;4.10;;;;;;;-0.45;64.91;100731.75;5106416;28;20024;-61
2022/03/13 02:01:21;;;;;;;5.40;3.58;;;;;;;-0.37;65.32;100735.44;5107189;28;20024;-61
2022/03/13 02:03:47;;;;;;;4.32;3.75;;;;;;;-0.39;66.41;100729.44;5107332;28;20058;-61
2022/03/13 02:06:14;;;;;;;3.95;3.50;;;;;;;-0.43;65.78;100732.66;5106283;28;20295;-62
2022/03/13 02:08:40;;;;;;;7.45;3.80;;;;;;;-0.38;65.94;100732.03;5088975;28;20055;-61
2022/03/13 02:11:07;;;;;;;5.22;3.60;;;;;;;-0.67;65.76;100696.94;5123111;28;20107;-61
2022/03/13 02:13:34;;;;;;;4.47;3.30;;;;;;;-0.54;66.17;100733.09;5106953;28;20217;-62
2022/03/13 02:16:00;;;;;;;3.80;3.25;;;;;;;-0.45;65.71;100724.13;5107296;28;20317;-61
2022/03/13 02:18:26;;;;;;;4.75;4.00;;;;;;;-0.45;66.43;100724.13;5107265;28;20095;-62
2022/03/13 02:20:52;;;;;;;5.22;4.03;;;;;;;-0.39;66.08;100726.91;5106060;28;20020;-61
2022/03/13 02:23:25;;;;;;;7.53;3.75;;;;;;;-0.44;65.29;100731.81;5122963;28;20023;-63
2022/03/13 02:25:53;;;;;;;5.20;3.08;;;;;;;-0.88;65.51;100673.22;5123127;28;20087;-63
2022/03/13 02:28:20;;;;;;;5.80;3.78;;;;;;;-0.41;65.96;100748.88;5107111;28;20034;-62
2022/03/13 02:30:47;;;;;;;6.32;3.90;;;;;;;-0.44;66.30;100731.81;5107031;28;20066;-61
2022/03/13 02:33:16;;;;;;;4.55;3.35;;;;;;;-0.40;66.70;100738.75;5106834;28;20209;-61
2022/03/13 02:35:41;;;;;;;3.55;2.90;;;;;;;-0.54;66.53;100745.81;5106815;28;20047;-61
2022/03/13 02:38:07;;;;;;;3.33;2.95;;;;;;;-0.48;66.21;100741.81;5106869;28;20047;-62
2022/03/13 02:40:34;;;;;;;3.95;2.72;;;;;;;-0.64;66.47;100728.47;5106616;28;20020;-62
2022/03/13 02:42:59;;;;;;;4.30;2.92;;;;;;;-0.61;66.33;100748.94;5106774;28;20024;-62
2022/03/13 02:45:33;;;;;;;4.57;2.70;;;;;;;-0.48;65.78;100754.53;5106627;28;20061;-62
2022/03/13 02:48:01;;;;;;;3.05;2.53;;;;;;;-0.54;65.45;100788.22;5106657;28;20028;-62
2022/03/13 02:50:27;;;;;;;3.55;2.83;;;;;;;-0.66;66.28;100740.22;5106750;28;20020;-61
2022/03/13 02:52:53;;;;;;;4.05;3.10;;;;;;;-0.63;66.52;100750.53;5106262;28;20101;-61
2022/03/13 02:55:19;;;;;;;3.55;2.70;;;;;;;-0.53;66.32;100751.78;5106447;28;20089;-61
2022/03/13 02:57:45;;;;;;;5.43;2.88;;;;;;;-0.57;65.34;100745.72;5106326;28;20099;-61
2022/03/13 03:00:11;;;;;;;4.65;2.47;;;;;;;-0.65;65.40;100744.50;5106339;28;20088;-61
2022/03/13 03:02:36;;;;;;;4.00;3.33;;;;;;;-0.53;65.17;100755.22;5105538;28;20031;-60
2022/03/13 03:05:06;;;;;;;4.47;2.63;;;;;;;-0.51;65.64;100755.28;5106354;28;20024;-61
2022/03/13 03:07:32;;;;;;;3.65;2.97;;;;;;;-0.65;65.62;100749.59;5106038;28;20309;-61
2022/03/13 03:09:58;;;;;;;2.78;2.47;;;;;;;-0.62;65.56;100761.59;5106159;28;20054;-61
2022/03/13 03:12:24;;;;;;;3.20;2.70;;;;;;;-0.56;65.47;100760.13;5106052;28;20031;-61
2022/03/13 03:14:50;;;;;;;5.47;2.85;;;;;;;-0.62;65.68;100759.03;5106113;28;20092;-62
2022/03/13 03:17:16;;;;;;;4.60;3.25;;;;;;;-0.58;65.75;100761.75;5105734;28;20070;-61
2022/03/13 03:19:42;;;;;;;4.65;2.90;;;;;;;-0.49;65.62;100758.72;5105967;28;20035;-61
2022/03/13 03:22:08;;;;;;;6.25;2.70;;;;;;;-0.60;65.01;100755.75;5106164;28;20074;-61
2022/03/13 03:24:34;;;;;;;2.22;2.00;;;;;;;-0.64;65.43;100761.53;5105942;28;20028;-62
2022/03/13 03:27:00;;;;;;;3.53;2.20;;;;;;;-0.73;64.97;100756.94;5104675;28;20249;-62
2022/03/13 03:29:27;;;;;;;2.38;1.85;;;;;;;-0.73;64.86;100756.03;5098605;28;20044;-63
2022/03/13 03:31:54;;;;;;;3.20;2.40;;;;;;;-0.71;65.48;100750.22;5084051;28;20024;-62
2022/03/13 03:34:22;;;;;;;2.35;2.15;;;;;;;-1.01;65.15;100690.44;5085313;28;20026;-63
2022/03/13 03:36:59;;;;;;;2.53;2.20;;;;;;;-0.61;65.32;100750.63;5084401;28;20090;-61
2022/03/13 03:39:26;;;;;;;3.17;2.38;;;;;;;-0.58;65.90;100738.88;5084263;28;20065;-62
2022/03/13 03:41:53;;;;;;;3.38;2.33;;;;;;;-0.70;65.75;100728.19;5085324;28;20084;-62
2022/03/13 03:44:20;;;;;;;3.83;2.70;;;;;;;-0.58;65.46;100743.97;5085288;28;20213;-61
2022/03/13 03:46:47;;;;;;;3.33;2.58;;;;;;;-0.83;66.01;100731.03;5085261;28;20044;-62
2022/03/13 03:49:13;;;;;;;4.13;2.45;;;;;;;-0.74;65.91;100752.63;5085233;28;20111;-61
2022/03/13 03:51:40;;;;;;;2.53;2.33;;;;;;;-0.74;65.52;100746.66;5083794;28;20428;-62
2022/03/13 03:54:07;;;;;;;2.83;2.33;;;;;;;-0.79;65.32;100741.41;5088686;28;20103;-61
2022/03/13 03:56:33;;;;;;;2.90;2.45;;;;;;;-0.84;65.45;100742.00;5094965;28;20016;-61
2022/03/13 03:58:59;;;;;;;3.45;2.45;;;;;;;-0.78;65.27;100744.81;5086248;28;20191;-61
2022/03/13 04:01:25;;;;;;;3.03;2.72;;;;;;;-1.05;66.17;100735.22;5084890;28;20032;-62
2022/03/13 04:03:51;;;;;;;2.63;2.42;;;;;;;-1.02;66.64;100732.81;5084906;28;20036;-61
2022/03/13 04:06:19;;;;;;;3.08;2.63;;;;;;;-0.90;67.21;100743.50;5084899;28;20432;-61
2022/03/13 04:08:45;;;;;;;3.67;2.72;;;;;;;-0.90;65.64;100740.97;5084693;28;20031;-61
2022/03/13 04:11:12;;;;;;;3.40;2.78;;;;;;;-0.85;66.54;100735.22;5084465;28;20041;-62
2022/03/13 04:13:38;;;;;;;4.68;3.13;;;;;;;-0.83;65.88;100739.53;5105942;28;20056;-61
2022/03/13 04:16:08;;;;;;;3.40;3.08;;;;;;;-0.96;65.62;100748.31;5083000;28;20032;-62
2022/03/13 04:18:37;;;;;;;3.97;2.42;;;;;;;-1.11;66.07;100734.94;5098922;28;20022;-61
2022/03/13 04:21:05;;;;;;;6.43;2.97;;;;;;;-1.36;65.58;100683.06;5104820;28;20028;-62
2022/03/13 04:23:35;;;;;;;5.55;2.90;;;;;;;-1.36;66.12;100675.47;5104727;28;20028;-62
2022/03/13 04:26:03;;;;;;;3.63;2.40;;;;;;;-0.94;65.71;100754.34;5104611;28;20264;-62
2022/03/13 04:28:30;;;;;;;2.83;2.25;;;;;;;-1.09;66.19;100752.00;5104701;28;20058;-63
2022/03/13 04:30:58;;;;;;;3.25;2.28;;;;;;;-0.99;66.05;100749.88;5104690;28;20028;-62
2022/03/13 04:33:27;;;;;;;2.42;2.20;;;;;;;-0.91;66.39;100754.47;5104361;28;20236;-62
2022/03/13 04:35:56;;;;;;;3.22;2.40;;;;;;;-0.87;65.75;100758.88;5104516;28;20031;-61
2022/03/13 04:38:26;;;;;;;2.70;2.05;;;;;;;-1.03;65.68;100746.31;5104490;28;20027;-62
2022/03/13 04:40:52;;;;;;;3.72;2.28;;;;;;;-0.87;65.80;100750.38;5103414;28;20360;-63
2022/03/13 04:43:18;;;;;;;3.58;2.35;;;;;;;-0.84;65.64;100742.00;5103428;28;20224;-62
2022/03/13 04:45:44;;;;;;;8.23;4.45;;;;;;;-0.81;65.48;100740.47;5104240;28;20028;-62
2022/03/13 04:48:10;;;;;;;3.22;2.17;;;;;;;-0.87;65.54;100730.91;5104261;28;20028;-62
2022/03/13 04:50:35;;;;;;;2.97;2.20;;;;;;;-0.76;66.00;100743.19;5103147;28;20220;-62
2022/03/13 04:53:01;;;;;;;3.03;1.95;;;;;;;-0.78;65.12;100752.47;5102877;28;20020;-62
2022/03/13 04:55:26;;;;;;;2.38;2.15;;;;;;;-0.87;66.47;100751.25;5102824;28;20030;-62
2022/03/13 04:57:52;;;;;;;4.38;2.60;;;;;;;-1.06;66.30;100753.81;5104179;28;20016;-62
2022/03/13 05:00:18;;;;;;;3.72;2.63;;;;;;;-0.87;66.38;100748.72;5098801;28;20032;-63
2022/03/13 05:02:44;;;;;;;3.67;2.58;;;;;;;-0.82;66.46;100748.91;5098863;28;20024;-61
2022/03/13 05:05:09;;;;;;;3.83;2.70;;;;;;;-0.93;67.13;100748.44;5103966;28;20027;-61
2022/03/13 05:07:37;;;;;;;4.35;2.30;;;;;;;-0.89;67.03;100755.41;5099445;28;20017;-61
2022/03/13 05:10:05;;;;;;;3.80;2.45;;;;;;;-0.81;66.95;100758.28;5114054;28;20047;-60
2022/03/13 05:12:31;;;;;;;4.88;3.00;;;;;;;-0.88;67.81;100764.75;5100306;28;20032;-59
2022/03/13 05:14:56;;;;;;;7.15;3.45;;;;;;;-0.83;66.99;100764.94;5103409;28;20338;-60
2022/03/13 05:17:22;;;;;;;8.90;4.43;;;;;;;-1.02;68.39;100762.47;5100391;28;20031;-59
2022/03/13 05:19:48;;;;;;;6.97;3.80;;;;;;;-0.82;68.93;100774.31;5103382;28;20054;-60
2022/03/13 05:22:13;;;;;;;8.27;4.35;;;;;;;-0.92;68.28;100767.13;5100317;28;20020;-60
2022/03/13 05:24:39;;;;;;;5.78;3.53;;;;;;;-1.01;68.46;100761.63;5103155;28;20019;-61
2022/03/13 05:27:05;;;;;;;7.68;4.30;;;;;;;-0.85;69.23;100771.66;5102179;28;20028;-60
2022/03/13 05:29:30;;;;;;;4.55;3.38;;;;;;;-0.83;68.34;100781.91;5102819;28;20080;-60
2022/03/13 05:31:56;;;;;;;6.97;4.10;;;;;;;-0.86;68.58;100780.09;5102743;28;20069;-59
2022/03/13 05:34:21;;;;;;;5.63;3.35;;;;;;;-0.76;68.81;100771.19;5100864;28;20116;-60
2022/03/13 05:36:47;;;;;;;5.75;3.63;;;;;;;-0.73;68.03;100782.38;5099575;28;20106;-60
2022/03/13 05:39:14;;;;;;;7.63;4.05;;;;;;;-0.89;69.40;100779.97;5100691;28;20035;-59
2022/03/13 05:41:40;;;;;;;9.15;4.05;;;;;;;-0.75;69.14;100798.34;5088156;28;20032;-60
2022/03/13 05:44:09;;;;;;;6.20;3.58;;;;;;;-0.79;69.33;100788.84;5080896;28;20042;-60
2022/03/13 05:46:36;;;;;;;6.22;3.70;;;;;;;-0.66;68.63;100791.09;5082700;28;20349;-60
2022/03/13 05:49:03;;;;;;;6.25;3.80;;;;;;;-0.71;69.43;100788.38;5083017;28;20247;-60
2022/03/13 05:51:37;;;;;;;6.75;4.35;;;;;;;-0.62;69.15;100777.72;5083075;28;20080;-60
2022/03/13 05:54:06;;;;;;;6.68;3.80;;;;;;;-0.64;68.66;100770.81;5100767;28;20197;-60
2022/03/13 05:56:32;;;;;;;7.18;4.15;;;;;;;-0.53;69.08;100785.72;5096781;28;20027;-60
2022/03/13 05:58:58;;;;;;;7.82;4.38;;;;;;;-0.54;69.36;100781.44;5101138;28;20253;-60
2022/03/13 06:01:23;;;;;;;9.02;4.65;;;;;;;-0.59;69.80;100785.47;5101268;28;20032;-60
2022/03/13 06:03:49;;;;;;;6.32;3.95;;;;;;;-0.45;69.06;100790.28;5100660;28;20309;-60
2022/03/13 06:06:15;;;;;;;7.22;4.28;;;;;;;-0.44;69.37;100782.69;5102136;28;20062;-60
2022/03/13 06:08:41;;;;;;;6.45;4.55;;;;;;;-0.37;68.49;100776.16;5101901;28;20129;-60
2022/03/13 06:11:07;;;;;;;6.57;4.40;;;;;;;-0.34;68.22;100771.22;5101629;28;20036;-61
2022/03/13 06:13:32;;;;;;;6.03;4.28;;;;;;;-0.33;68.33;100778.03;5097867;28;20032;-60
2022/03/13 06:15:58;;;;;;;6.72;4.53;;;;;;;-0.23;68.24;100769.97;5101910;28;20065;-59
2022/03/13 06:18:25;;;;;;;7.43;4.68;;;;;;;-0.29;68.85;100762.06;5099523;28;20059;-59
2022/03/13 06:20:51;;;;;;;8.60;4.72;;;;;;;-0.28;68.51;100766.38;5101968;28;20042;-60
2022/03/13 06:23:16;;;;;;;6.68;4.78;;;;;;;-0.18;68.64;100768.47;5101858;28;20217;-62
2022/03/13 06:25:43;;;;;;;8.15;4.75;;;;;;;-0.24;68.87;100768.22;5102133;28;20085;-60
2022/03/13 06:28:10;;;;;;;7.80;4.82;;;;;;;-0.10;68.79;100773.00;5102021;28;20027;-61
2022/03/13 06:30:37;;;;;;;7.78;5.13;;;;;;;-0.12;68.65;100774.63;5101810;28;20016;-61
2022/03/13 06:33:03;;;;;;;9.13;5.35;;;;;;;-0.36;69.57;100776.25;5101739;28;20027;-62
2022/03/13 06:35:28;;;;;;;8.10;5.32;;;;;;;-0.21;70.19;100778.53;5101680;28;20016;-60
2022/03/13 06:37:54;;;;;;;8.38;5.30;;;;;;;-0.10;69.29;100773.00;5102385;28;20237;-62
2022/03/13 06:40:22;;;;;;;8.23;5.75;;;;;;;-0.01;69.22;100781.00;5103229;28;20313;-61
2022/03/13 06:42:49;;;;;;;9.23;5.78;;;;;;;-0.04;69.85;100776.66;5086283;28;20024;-62
2022/03/13 06:45:15;;;;;;;9.35;5.40;;;;;;;-0.04;69.52;100763.06;5086456;28;20035;-62
2022/03/13 06:47:49;;;;;;;9.52;5.68;;;;;;;-0.08;68.94;100766.28;5086091;28;20217;-62
2022/03/13 06:50:19;;;;;;;8.05;5.55;;;;;;;-0.30;69.30;100699.28;5085919;28;20087;-61
2022/03/13 06:52:45;;;;;;;11.52;6.05;;;;;;;0.29;68.52;100754.97;5091497;28;20024;-62
2022/03/13 06:55:14;;;;;;;8.38;5.40;;;;;;;0.36;68.46;100750.97;5089885;28;20256;-62
2022/03/13 06:57:41;;;;;;;10.45;5.93;;;;;;;0.42;67.92;100759.72;5087879;28;20036;-62
2022/03/13 07:00:08;;;;;;;10.50;5.68;;;;;;;0.42;68.07;100754.59;5104659;28;20221;-63
2022/03/13 07:02:34;;;;;;;8.80;5.30;;;;;;;0.47;68.05;100753.13;5105022;28;20059;-61
2022/03/13 07:04:59;;;;;;;8.13;5.18;;;;;;;0.63;67.95;100752.00;5103686;28;20030;-61
2022/03/13 07:07:25;;;;;;;10.15;5.45;;;;;;;0.68;68.44;100747.94;5104331;28;20039;-64
2022/03/13 07:09:52;;;;;;;9.55;5.30;;;;;;;0.80;67.28;100747.50;5104539;28;20052;-61
2022/03/13 07:12:19;;;;;;;8.63;5.88;;;;;;;0.78;67.28;100740.59;5105558;28;20048;-61
2022/03/13 07:14:48;;;;;;;7.72;5.78;;;;;;;0.85;67.05;100734.91;5105554;28;20016;-61
2022/03/13 07:17:15;;;;;;;8.68;5.78;;;;;;;0.98;67.15;100738.75;5105345;28;20091;-61
2022/03/13 07:19:43;;;;;;;11.43;5.72;;;;;;;1.06;66.58;100734.78;5105637;28;20028;-62
2022/03/13 07:22:11;;;;;;;8.63;6.20;;;;;;;1.16;66.44;100718.97;5103095;28;20317;-62
2022/03/13 07:24:37;;;;;;;11.98;6.82;;;;;;;1.25;66.15;100726.06;5105493;28;20027;-63
2022/03/13 07:27:03;;;;;;;9.82;6.88;;;;;;;1.08;65.35;100722.94;5105472;28;20328;-62
2022/03/13 07:29:29;;;;;;;11.48;6.72;;;;;;;1.28;66.25;100725.28;5105473;28;20039;-62
2022/03/13 07:31:56;;;;;;;10.63;7.15;;;;;;;1.27;65.04;100719.34;5104158;28;20024;-58
2022/03/13 07:34:26;;;;;;;11.57;7.20;;;;;;;1.26;65.41;100722.69;5105276;28;20317;-59
2022/03/13 07:36:53;;;;;;;14.50;7.18;;;;;;;1.27;65.77;100728.66;5105157;28;20039;-60
2022/03/13 07:39:19;;;;;;;14.23;7.22;;;;;;;1.59;65.21;100731.41;5105286;28;20046;-61
2022/03/13 07:41:45;;;;;;;11.38;7.18;;;;;;;1.40;64.67;100735.91;5103781;28;20274;-62
2022/03/13 07:44:11;;;;;;;10.43;6.32;;;;;;;1.43;65.20;100730.06;5105229;28;20020;-62
2022/03/13 07:46:37;;;;;;;11.13;6.03;;;;;;;1.41;64.97;100740.22;5105034;28;20321;-62
2022/03/13 07:49:02;;;;;;;10.77;6.72;;;;;;;1.59;64.25;100741.63;5104546;28;20088;-62
2022/03/13 07:51:28;;;;;;;12.18;6.25;;;;;;;1.55;64.45;100738.97;5104734;28;20027;-63
2022/03/13 07:53:53;;;;;;;7.90;5.78;;;;;;;1.66;64.09;100753.75;5102179;28;20027;-61
2022/03/13 07:56:19;;;;;;;9.93;6.45;;;;;;;1.51;64.47;100757.56;5098196;28;20029;-63
2022/03/13 07:58:45;;;;;;;8.13;5.85;;;;;;;1.24;64.48;100744.75;5099132;28;20055;-62
2022/03/13 08:01:12;;;;;;;9.73;5.88;;;;;;;1.29;64.27;100735.53;5105065;28;20035;-63
2022/03/13 08:03:38;;;;;;;8.82;5.60;;;;;;;1.50;64.01;100749.84;5105353;28;20024;-62
2022/03/13 08:06:04;;;;;;;7.97;5.43;;;;;;;1.61;63.81;100760.38;5104869;28;20020;-62
2022/03/13 08:08:30;;;;;;;9.48;5.78;;;;;;;1.47;64.38;100752.28;5094072;28;20024;-61
2022/03/13 08:10:57;;;;;;;9.15;6.13;;;;;;;1.46;64.73;100755.66;5093827;28;20044;-61
2022/03/13 08:13:23;;;;;;;7.40;5.35;;;;;;;1.48;63.99;100744.69;5104455;28;20032;-61
2022/03/13 08:15:49;;;;;;;9.75;5.60;;;;;;;1.50;64.83;100734.53;5103612;28;20031;-62
2022/03/13 08:18:15;;;;;;;9.43;5.82;;;;;;;1.49;63.90;100748.09;5104884;28;20028;-64
2022/03/13 08:20:40;;;;;;;9.23;5.75;;;;;;;1.69;64.10;100749.59;5104535;28;20022;-63
2022/03/13 08:23:06;;;;;;;9.85;6.07;;;;;;;1.66;64.44;100744.41;5104125;28;20032;-61
2022/03/13 08:25:32;;;;;;;10.38;5.57;;;;;;;1.76;63.69;100749.81;5103226;28;20032;-62
2022/03/13 08:27:57;;;;;;;8.70;5.72;;;;;;;1.62;64.15;100747.66;5102584;28;20016;-63
2022/03/13 08:30:23;;;;;;;7.15;5.80;;;;;;;1.76;63.85;100750.69;5101377;28;20305;-61
2022/03/13 08:32:49;;;;;;;8.85;5.60;;;;;;;1.89;63.54;100739.16;5102580;28;20024;-61
2022/03/13 08:35:15;;;;;;;10.63;6.43;;;;;;;1.81;63.71;100744.03;5102104;28;20038;-62
2022/03/13 08:37:40;;;;;;;9.63;5.97;;;;;;;1.87;63.41;100746.78;5102769;28;20020;-63
2022/03/13 08:40:08;;;;;;;11.98;5.90;;;;;;;1.90;63.16;100728.97;5101646;28;20016;-61
2022/03/13 08:42:34;;;;;;;12.90;6.10;;;;;;;1.99;62.72;100746.28;5102652;28;20027;-62
2022/03/13 08:45:00;;;;;;;11.65;5.65;;;;;;;1.97;63.07;100735.16;5102435;28;20020;-63
2022/03/13 08:47:27;;;;;;;10.40;6.80;;;;;;;1.79;63.07;100724.38;5102603;28;20028;-62
2022/03/13 08:49:53;;;;;;;10.32;5.78;;;;;;;1.80;63.19;100736.34;5102656;28;20091;-62
2022/03/13 08:52:19;;;;;;;8.63;5.85;;;;;;;1.86;63.26;100739.06;5098714;28;20039;-61
2022/03/13 08:54:45;;;;;;;7.32;5.38;;;;;;;1.72;63.52;100728.41;5102162;28;20073;-61
2022/03/13 08:57:11;;;;;;;9.38;6.20;;;;;;;1.87;63.67;100723.78;5102180;28;20324;-60
2022/03/13 08:59:37;;;;;;;11.00;6.55;;;;;;;1.97;63.57;100716.41;5102194;28;20027;-62
2022/03/13 09:02:04;;;;;;;8.40;5.97;;;;;;;1.95;63.75;100721.44;5084346;28;20224;-61
2022/03/13 09:04:30;;;;;;;8.65;5.82;;;;;;;2.09;63.59;100714.22;5102739;28;20012;-63
2022/03/13 09:06:56;;;;;;;9.45;5.50;;;;;;;2.04;62.32;100708.97;5103601;28;20023;-62
2022/03/13 09:09:22;;;;;;;10.93;5.75;;;;;;;2.15;62.39;100711.84;5101530;28;20127;-64
2022/03/13 09:11:49;;;;;;;11.75;6.15;;;;;;;2.29;62.71;100706.28;5099683;28;20068;-62
2022/03/13 09:14:15;;;;;;;10.45;6.15;;;;;;;2.35;61.89;100706.44;5101950;28;20031;-62
2022/03/13 09:16:42;;;;;;;10.13;5.30;;;;;;;2.46;61.48;100705.06;5102358;28;20024;-61
2022/03/13 09:19:09;;;;;;;8.05;5.15;;;;;;;2.49;61.44;100709.41;5101915;28;20020;-62
2022/03/13 09:21:38;;;;;;;9.93;5.30;;;;;;;2.63;61.28;100704.66;5102508;28;20020;-62
2022/03/13 09:24:06;;;;;;;6.82;4.60;;;;;;;2.62;61.95;100700.38;5099995;28;20221;-62
2022/03/13 09:26:34;;;;;;;14.38;4.78;;;;;;;2.60;61.70;100692.66;5100584;28;20085;-62
2022/03/13 09:29:01;;;;;;;8.48;4.95;;;;;;;2.73;61.03;100694.72;5100891;28;20049;-62
2022/03/13 09:31:27;;;;;;;7.80;4.85;;;;;;;2.81;60.98;100701.72;5101606;28;20356;-62
2022/03/13 09:33:52;;;;;;;7.95;5.50;;;;;;;2.56;61.45;100691.69;5100146;28;20028;-61
2022/03/13 09:36:18;;;;;;;11.40;5.80;;;;;;;2.71;61.33;100690.41;5101197;28;20040;-61
2022/03/13 09:38:43;;;;;;;9.55;5.78;;;;;;;3.02;60.80;100689.53;5102687;28;20028;-62
2022/03/13 09:41:09;;;;;;;9.40;5.07;;;;;;;3.05;60.38;100693.81;5095480;28;20024;-61
2022/03/13 09:43:35;;;;;;;8.52;5.55;;;;;;;2.98;60.30;100697.94;5088637;28;20087;-62
2022/03/13 09:46:00;;;;;;;10.45;5.40;;;;;;;2.99;60.39;100702.22;5103044;28;20012;-62
2022/03/13 09:48:26;;;;;;;7.68;5.20;;;;;;;3.18;59.97;100701.00;5102722;28;20016;-62
2022/03/13 09:50:52;;;;;;;9.93;5.47;;;;;;;3.17;59.99;100695.84;5102733;28;20321;-61
2022/03/13 09:53:18;;;;;;;19.55;6.32;;;;;;;3.26;59.38;100698.63;5100943;28;20043;-61
2022/03/13 09:55:43;;;;;;;10.20;5.55;;;;;;;3.17;60.17;100685.63;5102172;28;20020;-62
2022/03/13 09:58:09;;;;;;;9.85;5.90;;;;;;;3.19;60.39;100684.81;5103062;28;20225;-62
2022/03/13 10:00:36;;;;;;;7.30;5.32;;;;;;;2.99;60.54;100693.69;5102795;28;20028;-61
2022/03/13 10:03:10;;;;;;;8.13;5.00;;;;;;;3.13;60.42;100684.66;5102587;28;20229;-61
2022/03/13 10:05:44;;;;;;;8.85;5.88;;;;;;;2.45;60.96;100630.88;5103149;28;20099;-62
2022/03/13 10:08:10;;;;;;;9.73;6.00;;;;;;;2.79;60.66;100677.81;5103221;28;20309;-62
2022/03/13 10:10:44;;;;;;;12.30;5.85;;;;;;;2.83;61.24;100693.28;5103344;28;20039;-62
2022/03/13 10:13:11;;;;;;;9.43;5.78;;;;;;;2.85;61.59;100683.97;5104387;28;20024;-63
2022/03/13 10:15:49;;;;;;;9.82;5.85;;;;;;;2.28;60.83;100580.19;5107203;28;20024;-62
2022/03/13 10:18:20;;;;;;;6.95;5.75;;;;;;;2.96;60.54;100666.31;5106961;28;20031;-60
2022/03/13 10:20:47;;;;;;;10.80;6.82;;;;;;;3.07;61.14;100671.72;5107181;28;20085;-61
2022/03/13 10:23:19;;;;;;;13.07;5.82;;;;;;;3.19;60.55;100669.47;5106078;28;20032;-62
2022/03/13 10:25:47;;;;;;;10.43;6.45;;;;;;;2.91;60.83;100601.41;5107132;28;20024;-62
2022/03/13 10:28:23;;;;;;;9.70;6.65;;;;;;;3.33;60.24;100654.41;5107053;28;20313;-61
2022/03/13 10:31:06;;;;;;;8.77;6.10;;;;;;;3.26;60.38;100655.09;5106965;28;20091;-61
2022/03/13 10:33:44;;;;;;;9.65;5.85;;;;;;;3.34;60.03;100655.31;5105688;28;20194;-61
2022/03/13 10:36:19;;;;;;;8.13;5.25;;;;;;;3.31;nan;100638.16;5106775;28;20024;-61
2022/03/13 10:38:47;;;;;;;11.02;5.55;;;;;;;3.01;60.07;100590.53;5105514;28;20023;-62
2022/03/13 10:41:13;;;;;;;8.07;4.95;;;;;;;3.43;59.64;100642.69;5106511;28;20026;-62
2022/03/13 10:43:45;;;;;;;13.32;5.50;;;;;;;3.55;59.05;100643.00;5106521;28;20032;-60
2022/03/13 10:46:23;;;;;;;9.55;5.55;;;;;;;3.56;58.84;100637.06;5106445;28;20024;-61
2022/03/13 10:48:49;;;;;;;8.93;5.88;;;;;;;3.43;58.60;100622.22;5106592;28;20230;-61
2022/03/13 10:51:15;;;;;;;8.18;5.70;;;;;;;3.75;58.82;100632.34;5105377;28;20035;-62
2022/03/13 10:53:41;;;;;;;8.50;5.55;;;;;;;3.85;58.72;100626.56;5105641;28;20090;-60
2022/03/13 10:56:12;;;;;;;7.55;5.22;;;;;;;3.90;57.85;100611.28;5104963;28;20026;-61
2022/03/13 10:58:40;;;;;;;7.90;4.95;;;;;;;3.66;57.73;100557.84;5106279;28;20355;-61
2022/03/13 11:01:16;;;;;;;8.63;5.43;;;;;;;3.44;58.24;100559.94;5105035;28;20069;-60
2022/03/13 11:03:49;;;;;;;7.53;4.65;;;;;;;3.89;58.23;100625.81;5106286;28;20048;-60
2022/03/13 11:06:15;;;;;;;14.32;4.68;;;;;;;3.79;58.33;100606.81;5106177;28;20045;-60
2022/03/13 11:08:41;;;;;;;8.30;4.97;;;;;;;3.75;57.77;100622.09;5093611;28;20024;-61
2022/03/13 11:11:18;;;;;;;6.00;4.78;;;;;;;3.44;57.58;100553.13;5084467;28;20048;-61
2022/03/13 11:13:52;;;;;;;7.90;4.65;;;;;;;3.82;57.99;100625.63;5103244;28;20094;-61
2022/03/13 11:16:22;;;;;;;8.98;4.63;;;;;;;3.70;58.35;100563.06;5105954;28;20035;-62
2022/03/13 11:18:51;;;;;;;7.35;4.75;;;;;;;3.98;57.77;100597.78;5104907;28;20019;-61
2022/03/13 11:21:18;;;;;;;6.82;4.28;;;;;;;3.91;57.23;100606.19;5105522;28;20240;-62
2022/03/13 11:23:45;;;;;;;7.93;4.85;;;;;;;3.75;57.75;100561.47;5105028;28;20019;-60
2022/03/13 11:26:16;;;;;;;7.30;4.85;;;;;;;3.84;57.14;100617.16;5104286;28;20060;-61